sensor_id;sensor_type;location;lat;lon;timestamp;P1;durP1;ratioP1;P2;durP2;ratioP2
13309;SDS011;6723;48.256;16.402;2023-02-26T00:02:17;2.63;;;2.20;;
13309;SDS011;6723;48.256;16.402;2023-02-26T00:04:43;3.37;;;2.20;;
13309;SDS011;6723;48.256;16.402;2023-02-26T00:07:09;2.70;;;2.00;;
13309;SDS011;6723;48.256;16.402;2023-02-26T00:09:35;2.80;;;2.20;;
13309;SDS011;6723;48.256;16.402;2023-02-26T00:12:00;2.30;;;2.10;;
13309;SDS011;6723;48.256;16.402;2023-02-26T00:14:26;2.40;;;1.93;;
13309;SDS011;6723;48.256;16.402;2023-02-26T00:16:56;2.40;;;2.10;;
13309;SDS011;6723;48.256;16.402;2023-02-26T00:19:29;3.70;;;2.00;;
13309;SDS011;6723;48.256;16.402;2023-02-26T00:21:55;2.50;;;2.20;;
13309;SDS011;6723;48.256;16.402;2023-02-26T00:24:21;2.20;;;1.83;;
13309;SDS011;6723;48.256;16.402;2023-02-26T00:26:47;2.27;;;1.87;;
13309;SDS011;6723;48.256;16.402;2023-02-26T00:29:13;2.00;;;1.80;;
13309;SDS011;6723;48.256;16.402;2023-02-26T00:31:39;2.53;;;2.00;;
13309;SDS011;6723;48.256;16.402;2023-02-26T00:34:05;2.30;;;2.10;;
13309;SDS011;6723;48.256;16.402;2023-02-26T00:36:44;2.10;;;1.90;;
13309;SDS011;6723;48.256;16.402;2023-02-26T00:41:54;2.03;;;1.83;;
13309;SDS011;6723;48.256;16.402;2023-02-26T00:44:20;2.97;;;2.20;;
13309;SDS011;6723;48.256;16.402;2023-02-26T00:47:24;2.77;;;2.20;;
13309;SDS011;6723;48.256;16.402;2023-02-26T00:52:25;2.20;;;2.00;;
13309;SDS011;6723;48.256;16.402;2023-02-26T00:55:01;2.20;;;2.00;;
13309;SDS011;6723;48.256;16.402;2023-02-26T00:57:27;2.80;;;2.10;;
13309;SDS011;6723;48.256;16.402;2023-02-26T00:59:53;2.27;;;2.07;;
13309;SDS011;6723;48.256;16.402;2023-02-26T01:02:18;2.80;;;2.10;;
13309;SDS011;6723;48.256;16.402;2023-02-26T01:04:45;2.20;;;2.00;;
13309;SDS011;6723;48.256;16.402;2023-02-26T01:07:12;2.80;;;2.00;;
13309;SDS011;6723;48.256;16.402;2023-02-26T01:09:39;2.17;;;1.97;;
13309;SDS011;6723;48.256;16.402;2023-02-26T01:12:06;2.70;;;2.07;;
13309;SDS011;6723;48.256;16.402;2023-02-26T01:14:37;2.10;;;1.90;;
13309;SDS011;6723;48.256;16.402;2023-02-26T01:20:21;2.00;;;1.80;;
13309;SDS011;6723;48.256;16.402;2023-02-26T01:22:54;2.60;;;2.00;;
13309;SDS011;6723;48.256;16.402;2023-02-26T01:28:05;2.00;;;1.80;;
13309;SDS011;6723;48.256;16.402;2023-02-26T01:30:31;2.43;;;2.20;;
13309;SDS011;6723;48.256;16.402;2023-02-26T01:33:01;2.47;;;1.93;;
13309;SDS011;6723;48.256;16.402;2023-02-26T01:35:39;2.20;;;2.00;;
13309;SDS011;6723;48.256;16.402;2023-02-26T01:38:16;2.70;;;2.10;;
13309;SDS011;6723;48.256;16.402;2023-02-26T01:46:20;1.97;;;1.83;;
13309;SDS011;6723;48.256;16.402;2023-02-26T01:48:57;2.50;;;1.97;;
13309;SDS011;6723;48.256;16.402;2023-02-26T01:54:13;2.57;;;1.90;;
13309;SDS011;6723;48.256;16.402;2023-02-26T01:56:40;2.50;;;2.10;;
13309;SDS011;6723;48.256;16.402;2023-02-26T01:59:10;2.00;;;1.77;;
13309;SDS011;6723;48.256;16.402;2023-02-26T02:04:29;2.53;;;1.80;;
13309;SDS011;6723;48.256;16.402;2023-02-26T02:06:57;2.47;;;2.10;;
13309;SDS011;6723;48.256;16.402;2023-02-26T02:09:23;2.53;;;1.90;;
13309;SDS011;6723;48.256;16.402;2023-02-26T02:17:02;1.80;;;1.70;;
13309;SDS011;6723;48.256;16.402;2023-02-26T02:22:33;4.40;;;2.23;;
13309;SDS011;6723;48.256;16.402;2023-02-26T02:25:17;2.20;;;2.00;;
13309;SDS011;6723;48.256;16.402;2023-02-26T02:28:33;2.77;;;2.00;;
13309;SDS011;6723;48.256;16.402;2023-02-26T02:31:35;1.87;;;1.77;;
13309;SDS011;6723;48.256;16.402;2023-02-26T02:34:17;2.20;;;2.00;;
13309;SDS011;6723;48.256;16.402;2023-02-26T02:37:17;2.20;;;1.90;;
13309;SDS011;6723;48.256;16.402;2023-02-26T02:39:51;2.50;;;1.93;;
13309;SDS011;6723;48.256;16.402;2023-02-26T02:42:32;4.17;;;1.87;;
13309;SDS011;6723;48.256;16.402;2023-02-26T02:45:36;2.40;;;1.80;;
13309;SDS011;6723;48.256;16.402;2023-02-26T02:51:04;2.03;;;1.67;;
13309;SDS011;6723;48.256;16.402;2023-02-26T02:59:00;3.00;;;1.90;;
13309;SDS011;6723;48.256;16.402;2023-02-26T03:01:47;1.90;;;1.70;;
13309;SDS011;6723;48.256;16.402;2023-02-26T03:04:17;2.00;;;1.70;;
13309;SDS011;6723;48.256;16.402;2023-02-26T03:06:43;2.70;;;2.00;;
13309;SDS011;6723;48.256;16.402;2023-02-26T03:09:10;2.30;;;2.00;;
13309;SDS011;6723;48.256;16.402;2023-02-26T03:11:38;2.20;;;2.00;;
13309;SDS011;6723;48.256;16.402;2023-02-26T03:14:04;2.20;;;2.00;;
13309;SDS011;6723;48.256;16.402;2023-02-26T03:19:14;2.00;;;1.80;;
13309;SDS011;6723;48.256;16.402;2023-02-26T03:24:47;2.00;;;1.80;;
13309;SDS011;6723;48.256;16.402;2023-02-26T03:30:03;2.40;;;2.20;;
13309;SDS011;6723;48.256;16.402;2023-02-26T03:32:55;2.30;;;2.10;;
13309;SDS011;6723;48.256;16.402;2023-02-26T03:41:05;2.20;;;1.93;;
13309;SDS011;6723;48.256;16.402;2023-02-26T03:43:47;2.10;;;1.90;;
13309;SDS011;6723;48.256;16.402;2023-02-26T03:46:25;3.03;;;1.80;;
13309;SDS011;6723;48.256;16.402;2023-02-26T03:48:55;1.93;;;1.80;;
13309;SDS011;6723;48.256;16.402;2023-02-26T03:51:24;2.20;;;2.00;;
13309;SDS011;6723;48.256;16.402;2023-02-26T03:53:54;1.97;;;1.77;;
13309;SDS011;6723;48.256;16.402;2023-02-26T03:58:55;2.10;;;1.90;;
13309;SDS011;6723;48.256;16.402;2023-02-26T04:01:22;2.37;;;1.90;;
13309;SDS011;6723;48.256;16.402;2023-02-26T04:04:05;1.83;;;1.60;;
13309;SDS011;6723;48.256;16.402;2023-02-26T04:06:54;1.80;;;1.70;;
13309;SDS011;6723;48.256;16.402;2023-02-26T04:09:21;2.30;;;1.83;;
13309;SDS011;6723;48.256;16.402;2023-02-26T04:11:48;2.33;;;2.13;;
13309;SDS011;6723;48.256;16.402;2023-02-26T04:14:15;2.80;;;2.20;;
13309;SDS011;6723;48.256;16.402;2023-02-26T04:16:41;2.07;;;1.90;;
13309;SDS011;6723;48.256;16.402;2023-02-26T04:19:08;2.30;;;2.10;;
13309;SDS011;6723;48.256;16.402;2023-02-26T04:21:34;2.20;;;2.10;;
13309;SDS011;6723;48.256;16.402;2023-02-26T04:24:00;2.93;;;2.00;;
13309;SDS011;6723;48.256;16.402;2023-02-26T04:26:26;1.90;;;1.77;;
13309;SDS011;6723;48.256;16.402;2023-02-26T04:28:52;2.30;;;2.10;;
13309;SDS011;6723;48.256;16.402;2023-02-26T04:31:17;2.07;;;1.87;;
13309;SDS011;6723;48.256;16.402;2023-02-26T04:33:43;2.33;;;2.13;;
13309;SDS011;6723;48.256;16.402;2023-02-26T04:36:09;2.17;;;1.97;;
13309;SDS011;6723;48.256;16.402;2023-02-26T04:38:35;2.27;;;2.07;;
13309;SDS011;6723;48.256;16.402;2023-02-26T04:41:01;2.63;;;2.03;;
13309;SDS011;6723;48.256;16.402;2023-02-26T04:43:26;2.50;;;2.30;;
13309;SDS011;6723;48.256;16.402;2023-02-26T04:45:52;2.40;;;2.00;;
13309;SDS011;6723;48.256;16.402;2023-02-26T04:48:18;6.23;;;2.33;;
13309;SDS011;6723;48.256;16.402;2023-02-26T04:50:44;2.40;;;2.20;;
13309;SDS011;6723;48.256;16.402;2023-02-26T04:53:10;2.47;;;2.27;;
13309;SDS011;6723;48.256;16.402;2023-02-26T04:55:37;2.40;;;2.20;;
13309;SDS011;6723;48.256;16.402;2023-02-26T04:58:05;2.60;;;2.40;;
13309;SDS011;6723;48.256;16.402;2023-02-26T05:00:32;2.80;;;2.60;;
13309;SDS011;6723;48.256;16.402;2023-02-26T05:02:57;2.73;;;2.40;;
13309;SDS011;6723;48.256;16.402;2023-02-26T05:05:23;2.47;;;2.27;;
13309;SDS011;6723;48.256;16.402;2023-02-26T05:07:49;2.57;;;2.33;;
13309;SDS011;6723;48.256;16.402;2023-02-26T05:10:18;2.90;;;2.50;;
13309;SDS011;6723;48.256;16.402;2023-02-26T05:12:44;2.67;;;2.23;;
13309;SDS011;6723;48.256;16.402;2023-02-26T05:15:09;3.43;;;2.40;;
13309;SDS011;6723;48.256;16.402;2023-02-26T05:17:35;5.40;;;2.83;;
13309;SDS011;6723;48.256;16.402;2023-02-26T05:20:01;3.60;;;2.93;;
13309;SDS011;6723;48.256;16.402;2023-02-26T05:22:28;3.77;;;3.00;;
13309;SDS011;6723;48.256;16.402;2023-02-26T05:24:54;3.23;;;2.90;;
13309;SDS011;6723;48.256;16.402;2023-02-26T05:27:20;3.13;;;2.83;;
13309;SDS011;6723;48.256;16.402;2023-02-26T05:29:46;5.50;;;3.23;;
13309;SDS011;6723;48.256;16.402;2023-02-26T05:32:29;3.93;;;3.17;;
13309;SDS011;6723;48.256;16.402;2023-02-26T05:34:55;4.10;;;3.33;;
13309;SDS011;6723;48.256;16.402;2023-02-26T05:37:20;3.93;;;3.23;;
13309;SDS011;6723;48.256;16.402;2023-02-26T05:39:46;4.30;;;3.20;;
13309;SDS011;6723;48.256;16.402;2023-02-26T05:42:12;4.23;;;3.47;;
13309;SDS011;6723;48.256;16.402;2023-02-26T05:44:37;4.20;;;3.67;;
13309;SDS011;6723;48.256;16.402;2023-02-26T05:47:03;4.20;;;3.73;;
13309;SDS011;6723;48.256;16.402;2023-02-26T05:49:29;5.20;;;4.10;;
13309;SDS011;6723;48.256;16.402;2023-02-26T05:51:55;4.80;;;3.70;;
13309;SDS011;6723;48.256;16.402;2023-02-26T05:54:21;4.50;;;3.63;;
13309;SDS011;6723;48.256;16.402;2023-02-26T05:56:47;5.23;;;4.20;;
13309;SDS011;6723;48.256;16.402;2023-02-26T05:59:13;4.00;;;3.53;;
13309;SDS011;6723;48.256;16.402;2023-02-26T06:01:38;5.20;;;4.03;;
13309;SDS011;6723;48.256;16.402;2023-02-26T06:04:04;6.13;;;4.20;;
13309;SDS011;6723;48.256;16.402;2023-02-26T06:06:31;4.00;;;3.57;;
13309;SDS011;6723;48.256;16.402;2023-02-26T06:08:57;4.00;;;3.50;;
13309;SDS011;6723;48.256;16.402;2023-02-26T06:11:24;3.87;;;3.33;;
13309;SDS011;6723;48.256;16.402;2023-02-26T06:13:50;5.00;;;3.50;;
13309;SDS011;6723;48.256;16.402;2023-02-26T06:16:15;3.70;;;3.33;;
13309;SDS011;6723;48.256;16.402;2023-02-26T06:18:41;3.93;;;3.17;;
13309;SDS011;6723;48.256;16.402;2023-02-26T06:21:07;4.37;;;3.60;;
13309;SDS011;6723;48.256;16.402;2023-02-26T06:23:33;5.67;;;3.23;;
13309;SDS011;6723;48.256;16.402;2023-02-26T06:25:59;4.70;;;4.00;;
13309;SDS011;6723;48.256;16.402;2023-02-26T06:28:25;4.20;;;3.47;;
13309;SDS011;6723;48.256;16.402;2023-02-26T06:30:51;4.77;;;3.97;;
13309;SDS011;6723;48.256;16.402;2023-02-26T06:33:18;5.10;;;3.70;;
13309;SDS011;6723;48.256;16.402;2023-02-26T06:35:44;4.37;;;3.50;;
13309;SDS011;6723;48.256;16.402;2023-02-26T06:38:11;5.03;;;3.73;;
13309;SDS011;6723;48.256;16.402;2023-02-26T06:40:37;4.07;;;3.63;;
13309;SDS011;6723;48.256;16.402;2023-02-26T06:43:02;4.93;;;3.77;;
13309;SDS011;6723;48.256;16.402;2023-02-26T06:45:28;4.20;;;3.40;;
13309;SDS011;6723;48.256;16.402;2023-02-26T06:47:54;5.30;;;3.73;;
13309;SDS011;6723;48.256;16.402;2023-02-26T06:50:19;4.63;;;4.13;;
13309;SDS011;6723;48.256;16.402;2023-02-26T06:52:45;4.43;;;3.63;;
13309;SDS011;6723;48.256;16.402;2023-02-26T06:55:11;4.57;;;3.83;;
13309;SDS011;6723;48.256;16.402;2023-02-26T06:57:37;4.43;;;4.03;;
13309;SDS011;6723;48.256;16.402;2023-02-26T07:00:04;4.97;;;3.97;;
13309;SDS011;6723;48.256;16.402;2023-02-26T07:02:31;4.10;;;3.70;;
13309;SDS011;6723;48.256;16.402;2023-02-26T07:04:58;4.07;;;3.67;;
13309;SDS011;6723;48.256;16.402;2023-02-26T07:07:23;4.77;;;3.90;;
13309;SDS011;6723;48.256;16.402;2023-02-26T07:09:49;4.77;;;4.03;;
13309;SDS011;6723;48.256;16.402;2023-02-26T07:12:15;4.77;;;3.90;;
13309;SDS011;6723;48.256;16.402;2023-02-26T07:14:41;5.00;;;3.93;;
13309;SDS011;6723;48.256;16.402;2023-02-26T07:17:07;4.73;;;3.70;;
13309;SDS011;6723;48.256;16.402;2023-02-26T07:19:34;5.30;;;4.13;;
13309;SDS011;6723;48.256;16.402;2023-02-26T07:22:00;5.33;;;4.17;;
13309;SDS011;6723;48.256;16.402;2023-02-26T07:24:26;4.30;;;3.73;;
13309;SDS011;6723;48.256;16.402;2023-02-26T07:26:52;4.53;;;3.70;;
13309;SDS011;6723;48.256;16.402;2023-02-26T07:29:17;4.50;;;3.77;;
13309;SDS011;6723;48.256;16.402;2023-02-26T07:31:43;3.83;;;3.43;;
13309;SDS011;6723;48.256;16.402;2023-02-26T07:34:09;4.90;;;3.60;;
13309;SDS011;6723;48.256;16.402;2023-02-26T07:36:35;3.60;;;3.30;;
13309;SDS011;6723;48.256;16.402;2023-02-26T07:39:00;3.97;;;3.20;;
13309;SDS011;6723;48.256;16.402;2023-02-26T07:41:33;3.40;;;3.10;;
13309;SDS011;6723;48.256;16.402;2023-02-26T07:43:59;3.77;;;3.10;;
13309;SDS011;6723;48.256;16.402;2023-02-26T07:46:25;3.70;;;3.00;;
13309;SDS011;6723;48.256;16.402;2023-02-26T07:48:51;3.87;;;2.90;;
13309;SDS011;6723;48.256;16.402;2023-02-26T07:51:17;3.30;;;3.00;;
13309;SDS011;6723;48.256;16.402;2023-02-26T07:53:43;4.17;;;2.87;;
13309;SDS011;6723;48.256;16.402;2023-02-26T07:56:09;3.30;;;2.87;;
13309;SDS011;6723;48.256;16.402;2023-02-26T07:58:35;3.40;;;2.90;;
13309;SDS011;6723;48.256;16.402;2023-02-26T08:01:00;3.03;;;2.70;;
13309;SDS011;6723;48.256;16.402;2023-02-26T08:03:26;3.13;;;2.73;;
13309;SDS011;6723;48.256;16.402;2023-02-26T08:05:52;2.93;;;2.50;;
13309;SDS011;6723;48.256;16.402;2023-02-26T08:08:18;3.90;;;3.30;;
13309;SDS011;6723;48.256;16.402;2023-02-26T08:10:43;3.90;;;3.20;;
13309;SDS011;6723;48.256;16.402;2023-02-26T08:13:09;3.40;;;3.10;;
13309;SDS011;6723;48.256;16.402;2023-02-26T08:15:35;7.27;;;4.87;;
13309;SDS011;6723;48.256;16.402;2023-02-26T08:18:00;3.73;;;3.27;;
13309;SDS011;6723;48.256;16.402;2023-02-26T08:20:26;5.37;;;3.80;;
13309;SDS011;6723;48.256;16.402;2023-02-26T08:22:52;6.00;;;4.47;;
13309;SDS011;6723;48.256;16.402;2023-02-26T08:25:18;2.60;;;2.40;;
13309;SDS011;6723;48.256;16.402;2023-02-26T08:27:43;4.23;;;2.50;;
13309;SDS011;6723;48.256;16.402;2023-02-26T08:30:10;3.33;;;2.57;;
13309;SDS011;6723;48.256;16.402;2023-02-26T08:32:36;2.57;;;2.17;;
13309;SDS011;6723;48.256;16.402;2023-02-26T08:35:04;2.03;;;1.80;;
13309;SDS011;6723;48.256;16.402;2023-02-26T08:37:30;2.00;;;1.80;;
13309;SDS011;6723;48.256;16.402;2023-02-26T08:39:56;2.03;;;1.83;;
13309;SDS011;6723;48.256;16.402;2023-02-26T08:42:22;1.87;;;1.60;;
13309;SDS011;6723;48.256;16.402;2023-02-26T08:44:48;2.13;;;1.80;;
13309;SDS011;6723;48.256;16.402;2023-02-26T08:47:14;1.50;;;1.40;;
13309;SDS011;6723;48.256;16.402;2023-02-26T08:49:40;1.73;;;1.40;;
13309;SDS011;6723;48.256;16.402;2023-02-26T08:52:05;2.40;;;1.70;;
13309;SDS011;6723;48.256;16.402;2023-02-26T08:54:31;2.00;;;1.80;;
13309;SDS011;6723;48.256;16.402;2023-02-26T08:56:57;2.50;;;2.27;;
13309;SDS011;6723;48.256;16.402;2023-02-26T08:59:23;4.47;;;3.30;;
13309;SDS011;6723;48.256;16.402;2023-02-26T09:01:49;3.70;;;2.87;;
13309;SDS011;6723;48.256;16.402;2023-02-26T09:04:15;2.10;;;1.40;;
13309;SDS011;6723;48.256;16.402;2023-02-26T09:06:41;2.67;;;1.70;;
13309;SDS011;6723;48.256;16.402;2023-02-26T09:09:08;2.70;;;1.67;;
13309;SDS011;6723;48.256;16.402;2023-02-26T09:11:34;2.60;;;1.73;;
13309;SDS011;6723;48.256;16.402;2023-02-26T09:14:01;2.07;;;1.47;;
13309;SDS011;6723;48.256;16.402;2023-02-26T09:16:29;1.83;;;1.50;;
13309;SDS011;6723;48.256;16.402;2023-02-26T09:18:56;2.00;;;1.63;;
13309;SDS011;6723;48.256;16.402;2023-02-26T09:21:22;2.67;;;2.10;;
13309;SDS011;6723;48.256;16.402;2023-02-26T09:23:48;4.20;;;3.00;;
13309;SDS011;6723;48.256;16.402;2023-02-26T09:26:14;3.97;;;2.00;;
13309;SDS011;6723;48.256;16.402;2023-02-26T09:28:40;2.00;;;1.60;;
13309;SDS011;6723;48.256;16.402;2023-02-26T09:31:06;1.80;;;1.50;;
13309;SDS011;6723;48.256;16.402;2023-02-26T09:33:32;3.00;;;1.70;;
13309;SDS011;6723;48.256;16.402;2023-02-26T09:35:58;2.20;;;1.70;;
13309;SDS011;6723;48.256;16.402;2023-02-26T09:38:24;2.93;;;1.53;;
13309;SDS011;6723;48.256;16.402;2023-02-26T09:40:54;1.60;;;1.50;;
13309;SDS011;6723;48.256;16.402;2023-02-26T09:46:03;2.57;;;2.10;;
13309;SDS011;6723;48.256;16.402;2023-02-26T09:48:36;4.77;;;2.30;;
13309;SDS011;6723;48.256;16.402;2023-02-26T09:51:03;4.73;;;2.90;;
13309;SDS011;6723;48.256;16.402;2023-02-26T09:53:34;2.53;;;1.50;;
13309;SDS011;6723;48.256;16.402;2023-02-26T09:59:03;4.23;;;1.50;;
13309;SDS011;6723;48.256;16.402;2023-02-26T10:01:44;1.50;;;1.27;;
13309;SDS011;6723;48.256;16.402;2023-02-26T10:04:50;1.60;;;1.50;;
13309;SDS011;6723;48.256;16.402;2023-02-26T10:09:53;2.37;;;1.37;;
13309;SDS011;6723;48.256;16.402;2023-02-26T10:12:25;1.90;;;1.37;;
13309;SDS011;6723;48.256;16.402;2023-02-26T10:20:08;3.03;;;1.60;;
13309;SDS011;6723;48.256;16.402;2023-02-26T10:25:41;3.07;;;1.80;;
13309;SDS011;6723;48.256;16.402;2023-02-26T10:31:00;2.07;;;1.83;;
13309;SDS011;6723;48.256;16.402;2023-02-26T10:33:38;1.40;;;1.30;;
13309;SDS011;6723;48.256;16.402;2023-02-26T10:36:18;2.17;;;1.27;;
13309;SDS011;6723;48.256;16.402;2023-02-26T10:39:08;1.33;;;1.23;;
13309;SDS011;6723;48.256;16.402;2023-02-26T10:41:42;1.67;;;1.33;;
13309;SDS011;6723;48.256;16.402;2023-02-26T10:44:15;1.63;;;1.27;;
13309;SDS011;6723;48.256;16.402;2023-02-26T10:46:53;2.27;;;1.10;;
13309;SDS011;6723;48.256;16.402;2023-02-26T10:52:19;3.80;;;1.37;;
13309;SDS011;6723;48.256;16.402;2023-02-26T10:58:15;4.10;;;1.60;;
13309;SDS011;6723;48.256;16.402;2023-02-26T11:00:48;2.93;;;1.90;;
13309;SDS011;6723;48.256;16.402;2023-02-26T11:06:00;4.27;;;3.20;;
13309;SDS011;6723;48.256;16.402;2023-02-26T11:08:34;2.23;;;1.70;;
13309;SDS011;6723;48.256;16.402;2023-02-26T11:11:07;2.60;;;1.40;;
13309;SDS011;6723;48.256;16.402;2023-02-26T11:13:37;1.70;;;1.43;;
13309;SDS011;6723;48.256;16.402;2023-02-26T11:16:39;1.73;;;1.60;;
13309;SDS011;6723;48.256;16.402;2023-02-26T11:21:48;2.60;;;2.40;;
13309;SDS011;6723;48.256;16.402;2023-02-26T11:24:16;4.83;;;3.80;;
13309;SDS011;6723;48.256;16.402;2023-02-26T11:26:54;4.77;;;3.87;;
13309;SDS011;6723;48.256;16.402;2023-02-26T11:29:21;5.33;;;3.70;;
13309;SDS011;6723;48.256;16.402;2023-02-26T11:31:50;3.30;;;2.17;;
13309;SDS011;6723;48.256;16.402;2023-02-26T11:34:23;2.40;;;1.70;;
13309;SDS011;6723;48.256;16.402;2023-02-26T11:36:50;1.80;;;1.70;;
13309;SDS011;6723;48.256;16.402;2023-02-26T11:39:25;2.50;;;1.30;;
13309;SDS011;6723;48.256;16.402;2023-02-26T11:42:00;1.30;;;1.20;;
13309;SDS011;6723;48.256;16.402;2023-02-26T11:44:33;1.10;;;1.00;;
13309;SDS011;6723;48.256;16.402;2023-02-26T11:47:06;2.57;;;1.43;;
13309;SDS011;6723;48.256;16.402;2023-02-26T11:49:49;2.37;;;1.40;;
13309;SDS011;6723;48.256;16.402;2023-02-26T11:52:39;1.93;;;1.60;;
13309;SDS011;6723;48.256;16.402;2023-02-26T11:57:53;1.20;;;1.00;;
13309;SDS011;6723;48.256;16.402;2023-02-26T12:03:01;1.43;;;0.83;;
13309;SDS011;6723;48.256;16.402;2023-02-26T12:05:29;1.17;;;1.07;;
13309;SDS011;6723;48.256;16.402;2023-02-26T12:07:56;1.90;;;1.50;;
13309;SDS011;6723;48.256;16.402;2023-02-26T12:10:34;1.53;;;1.43;;
13309;SDS011;6723;48.256;16.402;2023-02-26T12:13:27;2.10;;;1.00;;
13309;SDS011;6723;48.256;16.402;2023-02-26T12:16:35;0.97;;;0.90;;
13309;SDS011;6723;48.256;16.402;2023-02-26T12:35:46;2.33;;;1.70;;
13309;SDS011;6723;48.256;16.402;2023-02-26T12:38:21;2.17;;;1.70;;
13309;SDS011;6723;48.256;16.402;2023-02-26T12:40:57;1.70;;;1.30;;
13309;SDS011;6723;48.256;16.402;2023-02-26T12:43:48;1.83;;;1.40;;
13309;SDS011;6723;48.256;16.402;2023-02-26T12:46:40;1.43;;;1.30;;
13309;SDS011;6723;48.256;16.402;2023-02-26T12:49:22;1.50;;;1.27;;
13309;SDS011;6723;48.256;16.402;2023-02-26T12:55:28;1.90;;;1.30;;
13309;SDS011;6723;48.256;16.402;2023-02-26T12:58:07;1.60;;;1.30;;
13309;SDS011;6723;48.256;16.402;2023-02-26T13:20:27;2.00;;;1.50;;
13309;SDS011;6723;48.256;16.402;2023-02-26T13:28:00;1.30;;;1.20;;
13309;SDS011;6723;48.256;16.402;2023-02-26T13:30:54;3.00;;;1.50;;
13309;SDS011;6723;48.256;16.402;2023-02-26T13:33:23;1.67;;;1.50;;
13309;SDS011;6723;48.256;16.402;2023-02-26T13:35:53;2.03;;;1.40;;
13309;SDS011;6723;48.256;16.402;2023-02-26T13:38:31;1.33;;;1.20;;
13309;SDS011;6723;48.256;16.402;2023-02-26T13:53:32;1.40;;;1.30;;
13309;SDS011;6723;48.256;16.402;2023-02-26T13:56:15;2.13;;;1.37;;
13309;SDS011;6723;48.256;16.402;2023-02-26T14:09:47;3.00;;;1.50;;
13309;SDS011;6723;48.256;16.402;2023-02-26T14:12:40;1.63;;;1.30;;
13309;SDS011;6723;48.256;16.402;2023-02-26T14:15:18;1.73;;;1.40;;
13309;SDS011;6723;48.256;16.402;2023-02-26T14:23:47;3.80;;;3.20;;
13309;SDS011;6723;48.256;16.402;2023-02-26T14:26:15;4.57;;;2.80;;
13309;SDS011;6723;48.256;16.402;2023-02-26T14:28:44;3.93;;;2.90;;
13309;SDS011;6723;48.256;16.402;2023-02-26T14:34:15;6.07;;;4.67;;
13309;SDS011;6723;48.256;16.402;2023-02-26T14:36:51;4.83;;;3.53;;
13309;SDS011;6723;48.256;16.402;2023-02-26T14:41:56;4.80;;;3.73;;
13309;SDS011;6723;48.256;16.402;2023-02-26T14:44:26;3.73;;;3.33;;
13309;SDS011;6723;48.256;16.402;2023-02-26T14:46:55;4.73;;;3.67;;
13309;SDS011;6723;48.256;16.402;2023-02-26T14:52:59;3.07;;;2.57;;
13309;SDS011;6723;48.256;16.402;2023-02-26T15:06:19;1.80;;;1.60;;
13309;SDS011;6723;48.256;16.402;2023-02-26T15:14:37;2.03;;;1.43;;
13309;SDS011;6723;48.256;16.402;2023-02-26T15:20:09;1.33;;;1.13;;
13309;SDS011;6723;48.256;16.402;2023-02-26T15:25:44;2.13;;;1.73;;
13309;SDS011;6723;48.256;16.402;2023-02-26T15:28:14;2.70;;;1.90;;
13309;SDS011;6723;48.256;16.402;2023-02-26T15:30:51;2.97;;;2.30;;
13309;SDS011;6723;48.256;16.402;2023-02-26T15:33:18;2.73;;;2.30;;
13309;SDS011;6723;48.256;16.402;2023-02-26T15:35:48;2.17;;;1.80;;
13309;SDS011;6723;48.256;16.402;2023-02-26T15:38:16;1.97;;;1.70;;
13309;SDS011;6723;48.256;16.402;2023-02-26T15:40:43;2.00;;;1.70;;
13309;SDS011;6723;48.256;16.402;2023-02-26T15:43:12;2.17;;;1.60;;
13309;SDS011;6723;48.256;16.402;2023-02-26T15:45:44;3.90;;;2.00;;
13309;SDS011;6723;48.256;16.402;2023-02-26T15:48:16;1.90;;;1.70;;
13309;SDS011;6723;48.256;16.402;2023-02-26T15:51:08;2.10;;;1.60;;
13309;SDS011;6723;48.256;16.402;2023-02-26T15:53:44;3.10;;;1.60;;
13309;SDS011;6723;48.256;16.402;2023-02-26T15:56:17;1.70;;;1.40;;
13309;SDS011;6723;48.256;16.402;2023-02-26T15:58:48;1.70;;;1.30;;
13309;SDS011;6723;48.256;16.402;2023-02-26T16:01:16;1.63;;;1.30;;
13309;SDS011;6723;48.256;16.402;2023-02-26T16:03:49;1.80;;;1.20;;
13309;SDS011;6723;48.256;16.402;2023-02-26T16:06:23;1.70;;;1.33;;
13309;SDS011;6723;48.256;16.402;2023-02-26T16:08:53;1.87;;;1.40;;
13309;SDS011;6723;48.256;16.402;2023-02-26T16:11:18;3.67;;;1.50;;
13309;SDS011;6723;48.256;16.402;2023-02-26T16:13:45;1.43;;;1.33;;
13309;SDS011;6723;48.256;16.402;2023-02-26T16:16:26;3.23;;;1.50;;
13309;SDS011;6723;48.256;16.402;2023-02-26T16:19:00;2.20;;;2.00;;
13309;SDS011;6723;48.256;16.402;2023-02-26T16:21:33;7.23;;;2.50;;
13309;SDS011;6723;48.256;16.402;2023-02-26T16:24:03;3.70;;;2.63;;
13309;SDS011;6723;48.256;16.402;2023-02-26T16:26:38;1.93;;;1.67;;
13309;SDS011;6723;48.256;16.402;2023-02-26T16:29:42;4.13;;;1.93;;
13309;SDS011;6723;48.256;16.402;2023-02-26T16:32:02;3.67;;;2.13;;
13309;SDS011;6723;48.256;16.402;2023-02-26T16:34:38;2.93;;;2.00;;
13309;SDS011;6723;48.256;16.402;2023-02-26T16:48:46;2.07;;;1.60;;
13309;SDS011;6723;48.256;16.402;2023-02-26T16:50:59;2.63;;;1.70;;
13309;SDS011;6723;48.256;16.402;2023-02-26T16:53:42;2.60;;;1.67;;
13309;SDS011;6723;48.256;16.402;2023-02-26T16:56:13;1.70;;;1.57;;
13309;SDS011;6723;48.256;16.402;2023-02-26T16:59:02;2.33;;;1.60;;
13309;SDS011;6723;48.256;16.402;2023-02-26T17:01:37;3.23;;;1.80;;
13309;SDS011;6723;48.256;16.402;2023-02-26T17:04:08;2.27;;;1.67;;
13309;SDS011;6723;48.256;16.402;2023-02-26T17:06:39;1.83;;;1.50;;
13309;SDS011;6723;48.256;16.402;2023-02-26T17:09:06;2.43;;;2.00;;
13309;SDS011;6723;48.256;16.402;2023-02-26T17:11:37;1.80;;;1.60;;
13309;SDS011;6723;48.256;16.402;2023-02-26T17:16:32;2.53;;;2.30;;
13309;SDS011;6723;48.256;16.402;2023-02-26T17:18:58;5.17;;;2.70;;
13309;SDS011;6723;48.256;16.402;2023-02-26T17:21:25;3.10;;;2.20;;
13309;SDS011;6723;48.256;16.402;2023-02-26T17:23:51;3.97;;;2.63;;
13309;SDS011;6723;48.256;16.402;2023-02-26T17:26:17;12.17;;;5.90;;
13309;SDS011;6723;48.256;16.402;2023-02-26T17:28:43;3.30;;;2.33;;
13309;SDS011;6723;48.256;16.402;2023-02-26T17:31:09;3.37;;;1.90;;
13309;SDS011;6723;48.256;16.402;2023-02-26T17:33:37;3.13;;;1.87;;
13309;SDS011;6723;48.256;16.402;2023-02-26T17:36:05;2.27;;;1.67;;
13309;SDS011;6723;48.256;16.402;2023-02-26T17:38:31;2.00;;;1.77;;
13309;SDS011;6723;48.256;16.402;2023-02-26T17:41:05;3.50;;;1.60;;
13309;SDS011;6723;48.256;16.402;2023-02-26T17:43:30;2.30;;;2.00;;
13309;SDS011;6723;48.256;16.402;2023-02-26T17:45:57;1.83;;;1.60;;
13309;SDS011;6723;48.256;16.402;2023-02-26T17:48:23;2.87;;;2.03;;
13309;SDS011;6723;48.256;16.402;2023-02-26T17:50:51;2.93;;;1.90;;
13309;SDS011;6723;48.256;16.402;2023-02-26T17:53:24;2.97;;;1.73;;
13309;SDS011;6723;48.256;16.402;2023-02-26T17:55:57;2.20;;;1.87;;
13309;SDS011;6723;48.256;16.402;2023-02-26T18:00:58;3.40;;;2.50;;
13309;SDS011;6723;48.256;16.402;2023-02-26T18:03:25;4.27;;;3.03;;
13309;SDS011;6723;48.256;16.402;2023-02-26T18:05:51;5.47;;;3.60;;
13309;SDS011;6723;48.256;16.402;2023-02-26T18:08:26;6.20;;;3.70;;
13309;SDS011;6723;48.256;16.402;2023-02-26T18:10:57;7.13;;;4.47;;
13309;SDS011;6723;48.256;16.402;2023-02-26T18:13:24;5.30;;;3.77;;
13309;SDS011;6723;48.256;16.402;2023-02-26T18:15:51;4.40;;;2.50;;
13309;SDS011;6723;48.256;16.402;2023-02-26T18:18:21;2.73;;;2.00;;
13309;SDS011;6723;48.256;16.402;2023-02-26T18:20:48;4.33;;;2.80;;
13309;SDS011;6723;48.256;16.402;2023-02-26T18:23:14;3.27;;;2.40;;
13309;SDS011;6723;48.256;16.402;2023-02-26T18:25:42;3.07;;;2.43;;
13309;SDS011;6723;48.256;16.402;2023-02-26T18:28:12;3.63;;;2.50;;
13309;SDS011;6723;48.256;16.402;2023-02-26T18:30:42;3.37;;;2.60;;
13309;SDS011;6723;48.256;16.402;2023-02-26T18:33:12;2.60;;;2.17;;
13309;SDS011;6723;48.256;16.402;2023-02-26T18:35:41;3.33;;;2.50;;
13309;SDS011;6723;48.256;16.402;2023-02-26T18:38:15;3.40;;;2.40;;
13309;SDS011;6723;48.256;16.402;2023-02-26T18:40:43;2.93;;;2.40;;
13309;SDS011;6723;48.256;16.402;2023-02-26T18:43:10;3.10;;;2.40;;